Time;durP1;ratioP1;P1;durP2;ratioP2;P2;SDS_P1;SDS_P2;PMS_P1;PMS_P2;Temp;Humidity;BMP_temperature;BMP_pressure;BME280_temperature;BME280_humidity;BME280_pressure;Samples;Min_cycle;Max_cycle;Signal;HPM_P1;HPM_P2
2021/12/16 00:06:02;;;;;;;20.25;7.22;;;7.90;99.90;;;;;;5071687;28;20106;-84
2021/12/16 00:10:58;;;;;;;10.68;8.18;;;7.90;99.90;;;;;;5088763;28;20043;-78
2021/12/16 00:34:58;;;;;;;17.30;8.50;;;8.00;99.90;;;;;;5090212;28;20403;-84
2021/12/16 00:37:26;;;;;;;22.17;9.02;;;8.00;99.90;;;;;;5093190;28;20051;-84
2021/12/16 00:39:52;;;;;;;17.90;8.68;;;8.00;99.90;;;;;;5083530;28;20399;-84
2021/12/16 00:43:13;;;;;;;20.60;8.68;;;8.00;99.90;;;;;;5078162;28;20055;-84
2021/12/16 00:47:57;;;;;;;17.10;8.63;;;8.00;99.90;;;;;;5085344;28;20093;-84
2021/12/16 00:55:56;;;;;;;20.60;9.63;;;7.90;99.90;;;;;;5062761;28;20048;-83
2021/12/16 00:58:27;;;;;;;13.57;9.32;;;7.90;99.90;;;;;;5092856;28;20469;-82
2021/12/16 01:01:02;;;;;;;17.40;7.38;;;7.90;99.90;;;;;;5063272;28;20143;-83
2021/12/16 01:03:44;;;;;;;19.50;9.68;;;7.90;99.90;;;;;;5089214;28;20093;-83
2021/12/16 01:09:09;;;;;;;18.88;7.97;;;7.80;99.90;;;;;;5081112;28;20077;-84
2021/12/16 01:34:02;;;;;;;24.35;9.88;;;7.80;99.90;;;;;;5070614;28;20402;-83
2021/12/16 01:49:59;;;;;;;22.33;10.48;;;7.50;99.90;;;;;;5076703;28;20175;-84
2021/12/16 01:55:31;;;;;;;20.50;9.75;;;7.50;99.90;;;;;;5084632;28;20048;-84
2021/12/16 01:58:09;;;;;;;18.77;8.75;;;7.50;99.90;;;;;;5062812;28;20055;-83
2021/12/16 02:00:53;;;;;;;20.33;8.88;;;7.50;99.90;;;;;;5076174;28;20059;-84
2021/12/16 02:03:25;;;;;;;21.10;8.82;;;7.50;99.90;;;;;;5078950;28;20119;-84
2021/12/16 02:06:07;;;;;;;19.05;10.15;;;7.50;99.90;;;;;;5079191;28;20043;-83
2021/12/16 02:08:37;;;;;;;19.33;7.90;;;7.50;99.90;;;;;;5080817;28;20493;-82
2021/12/16 02:27:46;;;;;;;19.92;9.15;;;7.50;99.90;;;;;;5087478;28;20052;-83
2021/12/16 02:31:12;;;;;;;25.42;10.43;;;7.40;99.90;;;;;;5085035;28;20501;-84
2021/12/16 02:33:23;;;;;;;21.15;11.10;;;7.50;99.90;;;;;;5084901;28;20048;-83
2021/12/16 02:36:01;;;;;;;14.00;8.88;;;7.40;99.90;;;;;;5072855;28;20578;-79
2021/12/16 02:38:32;;;;;;;26.10;9.63;;;7.30;99.90;;;;;;5062421;28;20134;-81
2021/12/16 02:40:59;;;;;;;22.42;9.70;;;7.30;99.90;;;;;;5054882;28;20392;-83
2021/12/16 02:48:43;;;;;;;12.32;7.28;;;7.10;99.90;;;;;;5064527;28;20083;-80
2021/12/16 02:51:14;;;;;;;26.80;9.32;;;7.10;99.90;;;;;;5088313;28;20123;-82
2021/12/16 02:53:44;;;;;;;21.45;9.10;;;6.90;99.90;;;;;;5078718;28;20516;-83
2021/12/16 02:56:09;;;;;;;14.98;8.70;;;6.80;99.90;;;;;;5055189;28;20049;-84
2021/12/16 02:58:39;;;;;;;20.42;8.85;;;6.90;99.90;;;;;;5060919;28;20040;-81
2021/12/16 03:01:20;;;;;;;18.05;9.13;;;6.80;99.90;;;;;;5075258;28;20033;-83
2021/12/16 03:03:46;;;;;;;22.77;9.75;;;6.80;99.90;;;;;;5086070;28;20119;-83
2021/12/16 03:06:12;;;;;;;19.10;10.25;;;6.70;99.90;;;;;;5077414;28;20159;-82
2021/12/16 03:08:41;;;;;;;17.10;9.18;;;6.60;99.90;;;;;;5077339;28;20135;-83
2021/12/16 03:11:21;;;;;;;27.33;9.82;;;6.60;99.90;;;;;;5074251;28;20055;-82
2021/12/16 03:22:04;;;;;;;21.67;11.05;;;6.60;99.90;;;;;;5053093;28;20044;-80
2021/12/16 03:28:13;;;;;;;24.90;10.52;;;6.50;99.90;;;;;;5035966;28;20292;-83
2021/12/16 03:38:26;;;;;;;23.88;11.00;;;6.40;99.90;;;;;;5063492;28;20048;-82
2021/12/16 03:40:52;;;;;;;17.77;9.85;;;6.40;99.90;;;;;;5087356;28;20043;-84
2021/12/16 03:43:20;;;;;;;25.33;11.18;;;6.30;99.90;;;;;;5059663;28;20049;-81
2021/12/16 03:48:53;;;;;;;28.33;12.50;;;6.40;99.90;;;;;;5065066;28;20512;-82
2021/12/16 03:51:24;;;;;;;23.02;10.98;;;6.40;99.90;;;;;;5079764;28;20037;-83
2021/12/16 03:53:53;;;;;;;26.17;11.45;;;6.40;99.90;;;;;;5052706;28;20106;-84
2021/12/16 03:56:20;;;;;;;26.55;11.13;;;6.40;99.90;;;;;;5070813;28;20437;-83
2021/12/16 03:58:46;;;;;;;21.70;11.65;;;6.40;99.90;;;;;;5078646;28;20066;-82
2021/12/16 04:01:17;;;;;;;19.80;10.68;;;6.40;99.90;;;;;;5076549;28;20048;-83
2021/12/16 04:03:43;;;;;;;21.17;10.23;;;6.40;99.90;;;;;;5058457;28;20040;-83
2021/12/16 04:06:10;;;;;;;21.75;11.35;;;6.30;99.90;;;;;;5087426;28;20089;-82
2021/12/16 04:08:36;;;;;;;23.65;10.38;;;6.30;99.90;;;;;;5056336;28;20040;-83
2021/12/16 04:11:12;;;;;;;21.17;11.25;;;6.40;99.90;;;;;;5068808;28;20437;-82
2021/12/16 04:13:59;;;;;;;27.60;12.90;;;6.30;99.90;;;;;;5080890;28;20049;-83
2021/12/16 04:16:33;;;;;;;22.30;11.23;;;6.40;99.90;;;;;;5059056;28;20058;-81
2021/12/16 04:19:02;;;;;;;19.92;10.25;;;6.40;99.90;;;;;;5064607;28;20466;-83
2021/12/16 04:21:28;;;;;;;21.13;12.40;;;6.40;99.90;;;;;;5068424;28;20413;-82
2021/12/16 04:23:57;;;;;;;21.05;10.63;;;6.30;99.90;;;;;;5070579;28;20725;-83
2021/12/16 04:26:27;;;;;;;23.65;11.05;;;6.40;99.90;;;;;;5081900;28;20519;-82
2021/12/16 04:28:53;;;;;;;25.10;11.85;;;6.30;99.90;;;;;;5083429;28;20136;-83
2021/12/16 04:31:18;;;;;;;23.00;11.25;;;6.30;99.90;;;;;;5086040;28;20086;-83
2021/12/16 04:33:44;;;;;;;25.65;12.55;;;6.30;99.90;;;;;;5082982;28;20055;-82
2021/12/16 04:36:12;;;;;;;20.67;11.20;;;6.30;99.90;;;;;;5078757;28;20083;-83
2021/12/16 04:38:40;;;;;;;32.15;12.50;;;6.30;99.90;;;;;;5070321;28;20489;-84
2021/12/16 04:41:09;;;;;;;24.77;12.25;;;6.20;99.90;;;;;;5057756;28;20116;-82
2021/12/16 04:43:40;;;;;;;31.17;10.82;;;6.20;99.90;;;;;;5088201;28;20055;-84
2021/12/16 04:46:22;;;;;;;21.15;10.88;;;6.10;99.90;;;;;;5078932;28;20078;-83
2021/12/16 04:48:50;;;;;;;24.98;13.32;;;6.20;99.90;;;;;;5090082;28;20085;-83
2021/12/16 04:51:17;;;;;;;27.33;12.73;;;6.20;99.90;;;;;;5077300;28;20025;-83
2021/12/16 04:53:43;;;;;;;21.90;12.05;;;6.20;99.90;;;;;;5082316;28;20048;-80
2021/12/16 04:56:10;;;;;;;20.73;11.15;;;6.30;99.90;;;;;;5082596;28;20028;-82
2021/12/16 04:58:36;;;;;;;35.13;13.63;;;6.30;99.90;;;;;;5087133;28;20502;-83
2021/12/16 05:01:04;;;;;;;28.95;14.00;;;6.40;99.90;;;;;;5079993;28;20453;-84
2021/12/16 05:03:30;;;;;;;27.30;12.18;;;6.20;99.90;;;;;;5081813;28;20072;-85
2021/12/16 05:05:56;;;;;;;34.78;13.15;;;6.30;99.90;;;;;;5077017;28;20055;-83
2021/12/16 05:08:22;;;;;;;24.15;11.63;;;6.40;99.90;;;;;;5066654;28;20040;-85
2021/12/16 05:10:50;;;;;;;27.08;14.40;;;6.40;99.90;;;;;;5088395;28;20036;-83
2021/12/16 05:13:19;;;;;;;35.35;12.88;;;6.40;99.90;;;;;;5075816;28;20051;-84
2021/12/16 05:15:45;;;;;;;22.10;12.45;;;6.40;99.90;;;;;;5084770;28;20048;-83
2021/12/16 05:18:14;;;;;;;24.75;12.35;;;6.30;99.90;;;;;;5082519;28;20670;-82
2021/12/16 05:20:43;;;;;;;34.42;12.80;;;6.30;99.90;;;;;;5079532;28;20123;-84
2021/12/16 05:26:14;;;;;;;26.80;11.10;;;6.30;99.90;;;;;;5072229;28;20876;-82
2021/12/16 05:28:43;;;;;;;25.75;12.77;;;6.20;99.90;;;;;;5089297;28;20067;-83
2021/12/16 05:31:09;;;;;;;22.95;11.75;;;6.20;99.90;;;;;;5083248;28;20170;-83
2021/12/16 05:33:35;;;;;;;22.08;10.73;;;6.30;99.90;;;;;;5089300;28;20509;-83
2021/12/16 05:36:01;;;;;;;25.83;11.07;;;6.00;99.90;;;;;;5072269;28;20063;-82
2021/12/16 05:38:28;;;;;;;21.17;10.10;;;6.10;99.90;;;;;;5091640;28;20059;-82
2021/12/16 05:40:55;;;;;;;26.70;11.63;;;6.10;99.90;;;;;;5089075;28;20118;-82
2021/12/16 05:43:24;;;;;;;26.40;13.18;;;6.20;99.90;;;;;;5089285;28;20067;-83
2021/12/16 05:45:52;;;;;;;24.17;12.13;;;6.30;99.90;;;;;;5068023;28;20028;-82
2021/12/16 05:48:21;;;;;;;23.98;11.90;;;6.30;99.90;;;;;;5074148;28;20119;-82
2021/12/16 05:50:50;;;;;;;25.17;10.85;;;6.30;99.90;;;;;;5089718;28;20039;-82
2021/12/16 05:53:17;;;;;;;25.10;11.00;;;6.40;99.90;;;;;;5083907;28;20090;-82
2021/12/16 05:55:42;;;;;;;22.83;11.05;;;6.60;99.90;;;;;;5074427;28;20455;-80
2021/12/16 05:58:10;;;;;;;33.35;13.50;;;6.50;99.90;;;;;;5088377;28;20044;-82
2021/12/16 06:00:39;;;;;;;21.48;10.57;;;6.60;99.90;;;;;;5068138;28;20127;-82
2021/12/16 06:03:05;;;;;;;21.23;12.05;;;6.60;99.90;;;;;;5074946;28;20048;-82
2021/12/16 06:05:31;;;;;;;23.13;12.10;;;6.70;99.90;;;;;;5082080;28;20441;-82
2021/12/16 06:07:59;;;;;;;25.88;11.40;;;6.70;99.90;;;;;;5079968;28;20040;-82
2021/12/16 06:13:11;;;;;;;26.40;12.55;;;6.70;99.90;;;;;;5067794;28;20440;-83
2021/12/16 06:26:32;;;;;;;32.45;13.45;;;6.40;99.90;;;;;;5071893;28;20056;-82
2021/12/16 06:28:58;;;;;;;38.30;14.07;;;6.30;99.90;;;;;;5081619;28;20466;-82
2021/12/16 06:31:24;;;;;;;35.28;15.52;;;6.40;99.90;;;;;;5085408;28;20044;-83
2021/12/16 06:33:50;;;;;;;23.30;12.88;;;6.40;99.90;;;;;;5069175;28;20127;-82
2021/12/16 06:36:15;;;;;;;26.45;15.25;;;6.20;99.90;;;;;;5088431;28;20094;-81
2021/12/16 06:38:41;;;;;;;27.95;13.65;;;6.20;99.90;;;;;;5085410;28;20557;-81
2021/12/16 06:41:07;;;;;;;29.63;14.18;;;6.30;99.90;;;;;;5061020;28;20197;-82
2021/12/16 06:43:34;;;;;;;34.88;17.55;;;6.20;99.90;;;;;;5079249;28;20485;-82
2021/12/16 06:46:03;;;;;;;38.67;15.52;;;6.00;99.90;;;;;;5059497;28;20044;-82
2021/12/16 06:48:33;;;;;;;32.17;14.73;;;6.20;99.90;;;;;;5066166;28;20162;-81
2021/12/16 06:51:10;;;;;;;30.08;14.63;;;6.10;99.90;;;;;;5056125;28;20044;-81
2021/12/16 06:54:02;;;;;;;19.98;14.02;;;6.00;99.90;;;;;;5082510;28;20044;-84
2021/12/16 06:56:36;;;;;;;28.58;14.68;;;6.00;99.90;;;;;;5076848;28;20045;-84
2021/12/16 06:59:09;;;;;;;28.20;14.35;;;6.00;99.90;;;;;;5079666;28;20048;-79
2021/12/16 07:01:40;;;;;;;24.90;13.00;;;6.10;99.90;;;;;;5084705;28;20124;-84
2021/12/16 07:04:12;;;;;;;24.60;15.20;;;6.00;99.90;;;;;;5077295;28;20101;-84
2021/12/16 07:06:39;;;;;;;30.85;13.82;;;5.80;99.90;;;;;;5075705;28;20036;-82
2021/12/16 07:09:17;;;;;;;23.10;12.98;;;5.90;99.90;;;;;;5086091;28;20047;-84
2021/12/16 07:11:47;;;;;;;28.88;14.35;;;6.00;99.90;;;;;;5094115;28;20386;-81
2021/12/16 07:14:16;;;;;;;28.85;13.68;;;6.00;99.90;;;;;;5082779;28;20064;-82
2021/12/16 07:16:44;;;;;;;35.97;14.40;;;5.80;99.90;;;;;;5074493;28;20044;-83
2021/12/16 07:19:10;;;;;;;26.85;14.85;;;5.80;99.90;;;;;;5063804;28;20040;-84
2021/12/16 07:21:40;;;;;;;28.15;14.35;;;5.80;99.90;;;;;;5080385;28;20040;-81
2021/12/16 07:24:11;;;;;;;25.88;13.82;;;5.80;99.90;;;;;;5086985;28;20141;-84
2021/12/16 07:26:37;;;;;;;25.65;13.80;;;5.70;99.90;;;;;;5070140;28;20383;-84
2021/12/16 07:29:05;;;;;;;29.20;13.27;;;5.60;99.90;;;;;;5079468;28;20134;-83
2021/12/16 07:31:33;;;;;;;25.88;13.77;;;5.60;99.90;;;;;;5070812;28;20093;-82
2021/12/16 07:34:00;;;;;;;31.08;13.75;;;5.70;99.90;;;;;;5081563;28;20041;-83
2021/12/16 07:36:26;;;;;;;40.08;15.90;;;5.70;99.90;;;;;;5062656;28;20124;-83
2021/12/16 07:38:53;;;;;;;62.17;15.48;;;5.70;99.90;;;;;;5087996;28;20044;-83
2021/12/16 07:41:21;;;;;;;53.63;15.27;;;5.70;99.90;;;;;;5089781;28;20044;-82
2021/12/16 07:44:09;;;;;;;53.50;17.45;;;5.70;99.90;;;;;;5064136;28;20044;-83
2021/12/16 07:46:40;;;;;;;53.85;16.17;;;5.80;99.90;;;;;;5053317;28;20406;-84
2021/12/16 07:49:08;;;;;;;34.92;15.40;;;5.80;99.90;;;;;;5079688;28;20041;-83
2021/12/16 07:51:34;;;;;;;37.35;15.30;;;5.80;99.90;;;;;;5075538;28;20052;-83
2021/12/16 07:54:00;;;;;;;34.20;16.67;;;5.80;99.90;;;;;;5059531;28;20043;-82
2021/12/16 07:56:26;;;;;;;81.10;17.85;;;5.80;99.90;;;;;;5084654;28;20054;-80
2021/12/16 07:58:53;;;;;;;52.25;16.83;;;5.90;99.90;;;;;;5079409;28;20044;-82
2021/12/16 08:01:19;;;;;;;204.20;22.13;;;5.80;99.90;;;;;;5072997;28;20104;-82
2021/12/16 08:03:45;;;;;;;203.50;20.35;;;5.70;99.90;;;;;;5060103;28;20036;-83
2021/12/16 08:06:18;;;;;;;225.13;26.98;;;5.80;99.90;;;;;;5073151;28;20086;-83
2021/12/16 08:08:44;;;;;;;252.55;26.77;;;5.90;99.90;;;;;;5078084;28;20047;-80
2021/12/16 08:11:09;;;;;;;247.38;24.17;;;5.70;99.90;;;;;;5072994;28;20040;-82
2021/12/16 08:13:36;;;;;;;202.45;22.00;;;5.90;99.90;;;;;;5060636;28;20040;-79
2021/12/16 08:16:03;;;;;;;91.45;17.02;;;5.90;99.90;;;;;;5050553;28;20048;-79
2021/12/16 08:18:30;;;;;;;227.55;26.55;;;5.80;99.90;;;;;;5068895;28;20040;-81
2021/12/16 08:20:55;;;;;;;283.08;29.58;;;6.00;99.90;;;;;;5069515;28;20046;-83
2021/12/16 08:23:21;;;;;;;195.48;23.73;;;5.90;99.90;;;;;;5068413;28;20108;-82
2021/12/16 08:25:47;;;;;;;146.45;20.23;;;6.00;99.90;;;;;;5060080;28;20032;-82
2021/12/16 08:28:13;;;;;;;113.78;19.48;;;6.10;99.90;;;;;;5068151;28;20163;-81
2021/12/16 08:30:45;;;;;;;71.93;18.48;;;6.00;99.90;;;;;;5058093;28;20048;-82
2021/12/16 08:33:12;;;;;;;113.50;19.88;;;6.10;99.90;;;;;;5068171;28;20108;-81
2021/12/16 08:35:40;;;;;;;60.05;18.40;;;6.20;99.90;;;;;;5060834;28;20074;-82
2021/12/16 08:38:09;;;;;;;109.25;21.00;;;6.30;99.90;;;;;;5068760;28;20044;-80
2021/12/16 08:40:35;;;;;;;113.85;20.52;;;6.20;99.90;;;;;;5048507;28;20055;-80
2021/12/16 08:43:00;;;;;;;72.18;19.00;;;6.20;99.90;;;;;;5058281;28;20041;-79
2021/12/16 08:45:29;;;;;;;54.80;18.80;;;6.40;99.90;;;;;;5066647;28;20398;-79
2021/12/16 08:47:56;;;;;;;61.40;20.88;;;6.40;99.90;;;;;;5066950;28;20540;-80
2021/12/16 08:50:26;;;;;;;71.05;19.63;;;6.40;99.90;;;;;;5072236;28;20048;-80
2021/12/16 08:52:54;;;;;;;125.78;24.33;;;6.40;99.90;;;;;;5073349;28;20471;-79
2021/12/16 08:55:20;;;;;;;50.55;18.95;;;6.50;99.90;;;;;;5067695;28;20394;-80
2021/12/16 08:57:46;;;;;;;60.00;16.80;;;6.50;99.90;;;;;;5067723;28;20044;-80
2021/12/16 09:00:17;;;;;;;56.75;19.67;;;6.60;99.90;;;;;;5068363;28;20634;-80
2021/12/16 09:02:43;;;;;;;56.90;17.27;;;6.50;99.90;;;;;;5064977;28;20048;-78
2021/12/16 09:05:09;;;;;;;58.40;18.92;;;6.60;99.90;;;;;;5052596;28;20120;-80
2021/12/16 09:07:35;;;;;;;66.57;19.83;;;6.60;99.90;;;;;;5055744;28;20048;-79
2021/12/16 09:10:01;;;;;;;61.70;20.02;;;6.60;99.90;;;;;;5068006;28;20044;-80
2021/12/16 09:14:59;;;;;;;46.30;18.27;;;6.80;99.90;;;;;;5060245;28;20060;-78
2021/12/16 09:17:25;;;;;;;53.03;21.63;;;6.90;99.90;;;;;;5076006;28;20495;-79
2021/12/16 09:19:54;;;;;;;42.33;19.17;;;6.90;99.90;;;;;;5092030;28;20040;-79
2021/12/16 09:22:22;;;;;;;69.40;21.70;;;6.90;99.90;;;;;;5079879;28;20048;-79
2021/12/16 09:24:49;;;;;;;64.88;21.55;;;6.90;99.90;;;;;;5072596;28;20036;-79
2021/12/16 09:27:16;;;;;;;74.25;22.40;;;7.00;99.90;;;;;;5071991;28;20087;-78
2021/12/16 09:29:42;;;;;;;70.20;20.30;;;7.00;99.90;;;;;;5084638;28;20484;-80
2021/12/16 09:32:08;;;;;;;66.10;22.13;;;7.10;99.90;;;;;;5076425;28;20048;-80
2021/12/16 09:34:36;;;;;;;59.58;22.45;;;7.00;99.90;;;;;;5057621;28;20080;-80
2021/12/16 09:37:03;;;;;;;67.70;21.42;;;7.10;99.90;;;;;;5071908;28;20407;-80
2021/12/16 09:39:29;;;;;;;66.57;21.20;;;7.10;99.90;;;;;;5071568;28;20059;-80
2021/12/16 09:41:57;;;;;;;77.22;20.10;;;7.10;99.90;;;;;;5071990;28;20558;-80
2021/12/16 09:44:25;;;;;;;126.18;21.30;;;7.10;99.90;;;;;;5071636;28;20086;-81
2021/12/16 09:46:53;;;;;;;61.08;18.77;;;7.00;99.90;;;;;;5036310;28;20097;-80
2021/12/16 09:49:19;;;;;;;61.80;21.20;;;7.10;99.90;;;;;;5063134;28;20044;-79
2021/12/16 09:51:48;;;;;;;73.13;20.90;;;7.10;99.90;;;;;;5086297;28;20394;-77
2021/12/16 09:54:23;;;;;;;96.50;23.42;;;7.10;99.90;;;;;;5082391;28;20395;-77
2021/12/16 09:56:50;;;;;;;70.72;20.48;;;7.20;99.90;;;;;;5076995;28;20040;-78
2021/12/16 09:59:17;;;;;;;58.88;20.33;;;7.30;99.90;;;;;;5047719;28;20032;-79
2021/12/16 10:01:47;;;;;;;98.65;22.02;;;7.30;99.90;;;;;;5083594;28;20043;-78
2021/12/16 10:04:15;;;;;;;95.47;21.27;;;7.30;99.90;;;;;;5073056;28;20039;-77
2021/12/16 10:06:42;;;;;;;125.32;25.67;;;7.20;99.90;;;;;;5081650;28;20058;-77
2021/12/16 10:09:09;;;;;;;114.72;23.20;;;7.10;99.90;;;;;;5100411;28;20040;-78
2021/12/16 10:11:38;;;;;;;113.32;22.42;;;7.10;99.90;;;;;;5065687;28;20491;-78
2021/12/16 10:14:20;;;;;;;90.28;20.02;;;7.20;99.90;;;;;;5089617;28;20175;-77
2021/12/16 10:19:34;;;;;;;124.28;20.40;;;7.20;99.90;;;;;;5086869;28;20498;-77
2021/12/16 10:22:31;;;;;;;95.28;20.75;;;7.10;99.90;;;;;;5070276;28;20044;-77
2021/12/16 10:25:15;;;;;;;119.75;22.35;;;7.20;99.90;;;;;;5100286;28;20087;-76
2021/12/16 10:27:56;;;;;;;92.80;22.48;;;7.30;99.90;;;;;;5106115;28;20043;-77
2021/12/16 10:30:22;;;;;;;131.35;23.65;;;7.30;99.90;;;;;;5081567;28;20129;-77
2021/12/16 10:32:49;;;;;;;53.53;19.10;;;7.20;99.90;;;;;;5098673;28;20061;-77
2021/12/16 10:35:28;;;;;;;87.88;21.73;;;7.40;99.90;;;;;;5079698;28;20054;-77
2021/12/16 10:38:01;;;;;;;97.55;20.85;;;7.40;99.90;;;;;;5074965;28;20094;-78
2021/12/16 10:40:55;;;;;;;71.60;20.80;;;7.50;99.90;;;;;;5083135;28;20036;-77
2021/12/16 10:43:35;;;;;;;86.22;20.88;;;7.50;99.90;;;;;;5088639;28;20048;-78
2021/12/16 10:46:28;;;;;;;42.95;17.75;;;7.60;99.90;;;;;;5102252;28;20051;-78
2021/12/16 10:49:01;;;;;;;42.45;18.42;;;7.60;99.90;;;;;;5102058;28;20058;-76
2021/12/16 10:51:31;;;;;;;85.43;19.35;;;7.70;99.90;;;;;;5075122;28;20037;-78
2021/12/16 10:54:19;;;;;;;60.78;17.65;;;7.70;99.90;;;;;;5088375;28;20505;-78
2021/12/16 10:57:03;;;;;;;49.38;19.02;;;7.80;99.90;;;;;;5059867;28;20041;-77
2021/12/16 10:59:39;;;;;;;47.17;18.10;;;7.80;99.90;;;;;;5067913;28;20472;-81
2021/12/16 11:02:12;;;;;;;66.55;19.75;;;7.70;99.90;;;;;;5079950;28;20054;-77
2021/12/16 11:05:02;;;;;;;62.50;18.52;;;7.90;99.90;;;;;;5082018;28;20234;-78
2021/12/16 11:07:44;;;;;;;;;;;7.80;99.90;;;;;;5079463;28;20044;-76
2021/12/16 11:10:29;;;;;;;49.55;18.55;;;7.80;99.90;;;;;;5083507;28;20015;-77
2021/12/16 11:13:02;;;;;;;53.40;20.40;;;7.90;99.90;;;;;;5068867;28;20501;-77
2021/12/16 11:15:33;;;;;;;86.70;21.75;;;8.00;99.90;;;;;;5071705;28;20106;-77
2021/12/16 11:18:02;;;;;;;83.50;21.98;;;7.90;99.90;;;;;;5089054;28;20036;-78
2021/12/16 11:20:48;;;;;;;54.80;21.48;;;8.00;99.90;;;;;;5061956;28;20143;-76
2021/12/16 11:23:34;;;;;;;59.65;20.70;;;8.00;99.90;;;;;;5082978;28;20604;-75
2021/12/16 11:26:05;;;;;;;44.45;18.77;;;8.10;99.90;;;;;;5104592;28;20052;-79
2021/12/16 11:28:35;;;;;;;54.58;19.33;;;8.10;99.90;;;;;;5076043;28;20390;-78
2021/12/16 11:31:05;;;;;;;51.85;20.05;;;8.10;99.90;;;;;;5069971;28;20044;-78
2021/12/16 11:33:38;;;;;;;56.88;20.70;;;8.10;99.90;;;;;;5057538;28;20040;-78
2021/12/16 11:36:29;;;;;;;66.40;20.40;;;8.20;99.90;;;;;;5076403;28;20094;-78
2021/12/16 11:39:01;;;;;;;56.65;22.65;;;8.10;99.90;;;;;;5064222;28;20446;-78
2021/12/16 11:41:44;;;;;;;50.70;21.27;;;8.20;99.90;;;;;;5055739;28;20050;-77
2021/12/16 11:44:17;;;;;;;61.92;19.83;;;8.30;99.90;;;;;;5084273;28;20410;-79
2021/12/16 11:46:50;;;;;;;68.43;23.55;;;8.30;99.90;;;;;;5083411;28;20054;-81
2021/12/16 11:49:22;;;;;;;59.58;22.08;;;8.30;99.90;;;;;;5080783;28;20068;-81
2021/12/16 11:51:50;;;;;;;50.40;19.00;;;8.30;99.90;;;;;;5088874;28;20039;-82
2021/12/16 11:54:37;;;;;;;61.72;22.50;;;8.40;99.90;;;;;;5060027;28;20128;-81
2021/12/16 11:57:24;;;;;;;66.32;21.67;;;8.40;99.90;;;;;;5042127;28;20487;-82
2021/12/16 11:59:58;;;;;;;55.95;19.77;;;8.30;99.90;;;;;;5068664;28;20609;-83
2021/12/16 12:02:35;;;;;;;46.97;18.63;;;8.30;99.90;;;;;;5082199;28;20492;-81
2021/12/16 12:05:21;;;;;;;66.95;22.00;;;8.30;99.90;;;;;;5105913;28;20047;-84
2021/12/16 12:07:51;;;;;;;89.78;24.27;;;8.30;99.90;;;;;;5083049;28;20127;-82
2021/12/16 12:10:35;;;;;;;90.43;24.95;;;8.40;99.90;;;;;;5081587;28;20048;-82
2021/12/16 12:13:06;;;;;;;66.47;22.85;;;8.40;99.90;;;;;;5061448;28;20486;-83
2021/12/16 12:15:52;;;;;;;56.67;22.30;;;8.40;99.90;;;;;;5073080;28;20059;-83
2021/12/16 12:18:37;;;;;;;63.60;21.85;;;8.60;99.90;;;;;;5064172;28;20051;-83
2021/12/16 12:21:22;;;;;;;61.72;22.38;;;8.40;99.90;;;;;;5085614;28;20459;-82
2021/12/16 12:23:52;;;;;;;69.85;21.05;;;8.50;99.90;;;;;;5094519;28;20082;-82
2021/12/16 12:26:19;;;;;;;58.55;22.88;;;8.50;99.90;;;;;;5079333;28;20032;-82
2021/12/16 12:28:51;;;;;;;89.80;22.88;;;8.60;99.90;;;;;;5071662;28;20079;-82
2021/12/16 12:31:20;;;;;;;58.20;20.42;;;8.60;99.90;;;;;;5085371;28;20089;-82
2021/12/16 12:33:46;;;;;;;70.65;19.55;;;8.70;99.90;;;;;;5077079;28;20406;-82
2021/12/16 12:36:14;;;;;;;60.40;19.35;;;8.70;99.90;;;;;;5083031;28;20084;-82
2021/12/16 12:38:40;;;;;;;99.30;21.38;;;8.70;99.90;;;;;;5083242;28;20044;-82
2021/12/16 12:41:07;;;;;;;63.67;22.85;;;8.70;99.90;;;;;;5084874;28;20032;-82
2021/12/16 12:43:34;;;;;;;63.50;19.08;;;8.80;99.90;;;;;;5087420;28;20127;-82
2021/12/16 12:46:02;;;;;;;71.32;19.60;;;8.70;99.90;;;;;;5091590;28;20044;-81
2021/12/16 12:48:28;;;;;;;51.83;15.90;;;8.70;99.90;;;;;;5070008;28;20046;-82
2021/12/16 12:50:58;;;;;;;55.45;16.38;;;8.70;99.90;;;;;;5070367;28;20075;-76
2021/12/16 12:53:36;;;;;;;53.97;16.40;;;8.80;99.90;;;;;;5070138;28;20029;-83
2021/12/16 12:56:17;;;;;;;54.40;17.27;;;8.80;99.90;;;;;;5071013;28;20790;-83
2021/12/16 12:58:53;;;;;;;54.95;14.68;;;8.80;99.90;;;;;;5081328;28;20049;-80
2021/12/16 13:01:37;;;;;;;47.78;11.23;;;8.80;99.90;;;;;;5058530;28;20079;-82
2021/12/16 13:04:10;;;;;;;43.72;13.07;;;8.70;99.90;;;;;;5092554;28;20131;-80
2021/12/16 13:07:00;;;;;;;49.05;12.75;;;8.60;99.90;;;;;;5074758;28;20166;-82
2021/12/16 13:09:25;;;;;;;32.80;10.52;;;8.60;99.90;;;;;;5074555;28;20090;-83
2021/12/16 13:11:52;;;;;;;32.58;10.98;;;8.60;99.90;;;;;;5081338;28;20406;-83
2021/12/16 13:14:28;;;;;;;40.03;12.60;;;8.70;99.90;;;;;;5058238;28;20086;-78
2021/12/16 13:28:27;;;;;;;77.75;16.10;;;8.60;99.90;;;;;;5078770;28;20157;-81
2021/12/16 13:30:59;;;;;;;63.08;16.52;;;8.70;99.90;;;;;;5091199;28;20132;-82
2021/12/16 13:33:39;;;;;;;49.33;16.85;;;8.70;99.90;;;;;;5079422;28;20482;-82
2021/12/16 13:36:17;;;;;;;40.90;15.60;;;8.80;99.90;;;;;;5088788;28;20051;-83
2021/12/16 13:38:49;;;;;;;56.35;20.35;;;8.80;99.90;;;;;;5084020;28;20059;-80
2021/12/16 13:41:22;;;;;;;75.25;22.35;;;8.70;99.90;;;;;;5093698;28;20044;-80
2021/12/16 13:43:55;;;;;;;71.55;22.50;;;8.70;99.90;;;;;;5088411;28;20076;-81
2021/12/16 13:46:40;;;;;;;61.13;23.48;;;8.70;99.90;;;;;;5049407;28;20048;-82
2021/12/16 13:58:19;;;;;;;73.78;20.55;;;8.70;99.90;;;;;;5039473;28;20130;-81
2021/12/16 14:01:17;;;;;;;63.28;24.88;;;8.70;99.90;;;;;;5094897;28;20047;-83
2021/12/16 14:06:36;;;;;;;58.15;23.95;;;8.80;99.90;;;;;;5075840;28;20212;-80
2021/12/16 14:09:19;;;;;;;59.20;25.30;;;8.80;99.90;;;;;;5054686;28;20040;-80
2021/12/16 14:14:46;;;;;;;48.60;22.30;;;8.70;99.90;;;;;;5055671;28;20129;-82
2021/12/16 14:17:57;;;;;;;59.78;25.02;;;8.70;99.90;;;;;;5056028;28;20051;-81
2021/12/16 14:23:57;;;;;;;58.08;22.38;;;8.70;99.90;;;;;;5073085;28;20521;-81
2021/12/16 14:32:32;;;;;;;57.40;25.30;;;8.70;99.90;;;;;;5053438;28;20114;-82
2021/12/16 14:37:18;;;;;;;43.70;19.13;;;8.70;99.90;;;;;;5085531;28;20091;-82
2021/12/16 14:42:42;;;;;;;57.55;24.40;;;8.70;99.90;;;;;;5076099;28;20445;-80
2021/12/16 14:45:26;;;;;;;49.97;21.92;;;8.90;99.90;;;;;;5058530;28;20481;-79
2021/12/16 14:50:48;;;;;;;44.90;21.48;;;8.70;99.90;;;;;;5059842;28;20048;-80
2021/12/16 14:53:13;;;;;;;53.45;22.38;;;8.80;99.90;;;;;;5079614;28;20062;-74
2021/12/16 14:55:39;;;;;;;57.05;24.48;;;8.80;99.90;;;;;;5053297;28;20501;-81
2021/12/16 14:58:05;;;;;;;54.78;23.80;;;8.80;99.90;;;;;;5059878;28;20048;-78
2021/12/16 15:00:59;;;;;;;49.50;24.52;;;8.80;99.90;;;;;;5071501;28;20127;-80
2021/12/16 15:03:30;;;;;;;52.47;24.17;;;8.80;99.90;;;;;;5062934;28;20048;-80
2021/12/16 15:05:59;;;;;;;54.42;22.95;;;8.80;99.90;;;;;;5058259;28;20071;-79
2021/12/16 15:08:41;;;;;;;58.35;24.20;;;8.80;99.90;;;;;;5081815;28;20119;-80
2021/12/16 15:11:10;;;;;;;54.17;26.98;;;8.80;99.90;;;;;;5081290;28;20111;-79
2021/12/16 15:13:42;;;;;;;58.72;25.98;;;8.90;99.90;;;;;;5056043;28;20053;-80
2021/12/16 15:35:00;;;;;;;42.38;21.50;;;8.90;99.90;;;;;;5071183;28;20068;-79
2021/12/16 15:44:50;;;;;;;53.70;27.23;;;9.00;99.90;;;;;;5082033;28;20044;-79
2021/12/16 15:47:15;;;;;;;54.47;27.00;;;8.90;99.90;;;;;;5076929;28;20589;-81
2021/12/16 15:49:41;;;;;;;60.83;27.40;;;9.00;99.90;;;;;;5057292;28;20123;-79
2021/12/16 15:52:07;;;;;;;50.92;24.85;;;8.90;99.90;;;;;;5087988;28;20052;-77
2021/12/16 15:54:37;;;;;;;44.05;22.40;;;8.90;99.90;;;;;;5095368;28;20071;-80
2021/12/16 15:57:05;;;;;;;62.05;24.15;;;9.00;99.90;;;;;;5074114;28;20047;-80
2021/12/16 15:59:30;;;;;;;40.13;21.58;;;8.90;99.90;;;;;;5076547;28;20048;-80
2021/12/16 16:01:58;;;;;;;39.83;20.98;;;9.00;99.90;;;;;;5070224;28;20141;-80
2021/12/16 16:04:32;;;;;;;33.35;21.30;;;8.90;99.90;;;;;;5064944;28;20067;-80
2021/12/16 16:07:02;;;;;;;46.45;21.70;;;9.00;99.90;;;;;;5089304;28;20051;-79
2021/12/16 16:09:35;;;;;;;38.63;21.83;;;9.00;99.90;;;;;;5094765;28;20039;-81
2021/12/16 16:12:01;;;;;;;44.35;20.42;;;8.90;99.90;;;;;;5076634;28;20371;-78
2021/12/16 16:14:32;;;;;;;53.30;22.05;;;8.90;99.90;;;;;;5079422;28;20458;-84
2021/12/16 16:16:59;;;;;;;;;;;9.00;99.90;;;;;;5087541;28;20040;-83
2021/12/16 16:19:32;;;;;;;47.08;20.25;;;9.00;99.90;;;;;;5083689;28;19931;-82
2021/12/16 16:22:02;;;;;;;52.47;21.23;;;8.90;99.90;;;;;;5080747;28;20099;-85
2021/12/16 16:24:34;;;;;;;42.05;20.85;;;9.00;99.90;;;;;;5092592;28;20084;-84
2021/12/16 16:27:04;;;;;;;44.33;22.58;;;9.00;99.90;;;;;;5071057;28;20535;-83
2021/12/16 16:29:32;;;;;;;47.70;22.23;;;8.90;99.90;;;;;;5063455;28;20093;-83
2021/12/16 16:31:59;;;;;;;50.88;22.52;;;8.90;99.90;;;;;;5038515;28;20138;-83
2021/12/16 16:34:31;;;;;;;68.65;25.80;;;8.90;99.90;;;;;;5055258;28;20128;-85